createdAt,value
2017-09-16T00:00:03.797Z,82.10
2017-09-16T00:02:31.312Z,82.10
2017-09-16T00:04:58.813Z,81.80
2017-09-16T00:07:26.325Z,81.20
2017-09-16T00:09:53.829Z,81.10
2017-09-16T00:12:21.360Z,81.20
2017-09-16T00:14:49.640Z,80.70
2017-09-16T00:17:17.912Z,80.90
2017-09-16T00:19:45.424Z,80.90
2017-09-16T00:22:12.922Z,80.80
2017-09-16T00:24:40.464Z,80.40
2017-09-16T00:27:07.969Z,79.90
2017-09-16T00:29:35.456Z,79.90
2017-09-16T00:32:02.977Z,79.90
2017-09-16T00:34:30.493Z,80.00
2017-09-16T00:36:58.029Z,80.10
2017-09-16T00:39:25.530Z,80.30
2017-09-16T00:41:53.829Z,80.20
2017-09-16T00:44:21.371Z,80.20
2017-09-16T00:46:49.664Z,79.80
2017-09-16T00:49:17.332Z,79.70
2017-09-16T00:51:44.836Z,79.40
2017-09-16T00:54:12.328Z,79.50
2017-09-16T00:56:40.604Z,79.50
2017-09-16T00:59:08.108Z,79.40
2017-09-16T01:01:35.621Z,80.00
2017-09-16T01:04:03.896Z,80.30
2017-09-16T01:06:31.417Z,80.10
2017-09-16T01:08:58.913Z,80.10
2017-09-16T01:11:26.404Z,80.30
2017-09-16T01:13:53.948Z,80.30
2017-09-16T01:16:21.447Z,80.20
2017-09-16T01:18:48.966Z,80.00
2017-09-16T01:21:16.473Z,80.00
2017-09-16T01:23:44.000Z,79.90
2017-09-16T01:26:11.505Z,79.70
2017-09-16T01:28:39.768Z,79.80
2017-09-16T01:31:07.348Z,79.70
2017-09-16T01:33:34.841Z,79.90
2017-09-16T01:36:02.332Z,79.80
2017-09-16T01:38:29.860Z,79.90
2017-09-16T01:40:57.388Z,79.90
2017-09-16T01:43:24.916Z,80.50
2017-09-16T01:45:53.176Z,80.90
2017-09-16T01:48:20.664Z,80.90
2017-09-16T01:50:48.186Z,80.90
2017-09-16T01:53:15.712Z,80.60
2017-09-16T01:55:43.209Z,80.50
2017-09-16T01:58:10.700Z,80.10
2017-09-16T02:00:38.234Z,79.90
2017-09-16T02:03:06.495Z,79.60
2017-09-16T02:05:33.984Z,79.50
2017-09-16T02:08:01.505Z,78.90
2017-09-16T02:10:29.017Z,79.00
2017-09-16T02:12:56.540Z,78.80
2017-09-16T02:15:24.812Z,78.70
2017-09-16T02:17:53.106Z,79.10
2017-09-16T02:20:21.386Z,79.10
2017-09-16T02:22:48.893Z,79.10
2017-09-16T02:25:16.413Z,79.80
2017-09-16T02:27:43.913Z,80.20
2017-09-16T02:30:11.436Z,80.20
2017-09-16T02:32:38.929Z,80.10
2017-09-16T02:35:06.476Z,80.20
2017-09-16T02:37:33.972Z,79.80
2017-09-16T02:40:02.237Z,79.30
2017-09-16T02:42:29.762Z,79.30
2017-09-16T02:44:57.252Z,79.10
2017-09-16T02:47:25.540Z,78.70
2017-09-16T02:49:53.797Z,78.70
2017-09-16T02:52:21.308Z,78.60
2017-09-16T02:54:48.796Z,78.70
2017-09-16T02:57:16.332Z,78.70
2017-09-16T02:59:43.841Z,78.40
2017-09-16T03:02:12.136Z,78.30
2017-09-16T03:04:40.410Z,78.30
2017-09-16T03:07:07.908Z,78.30
2017-09-16T03:09:35.405Z,77.90
2017-09-16T03:12:03.692Z,78.10
2017-09-16T03:14:31.211Z,78.10
2017-09-16T03:16:58.789Z,77.90
2017-09-16T03:19:27.089Z,78.10
2017-09-16T03:21:54.616Z,78.00
2017-09-16T03:24:22.124Z,78.10
2017-09-16T03:26:49.656Z,78.10
2017-09-16T03:29:17.932Z,77.90
2017-09-16T03:31:46.185Z,78.50
2017-09-16T03:34:13.696Z,78.50
2017-09-16T03:36:41.204Z,79.20
2017-09-16T03:39:09.496Z,81.90
2017-09-16T03:41:36.990Z,81.90
2017-09-16T03:44:04.484Z,82.80
2017-09-16T03:46:31.998Z,84.30
2017-09-16T03:48:59.493Z,84.00
2017-09-16T03:51:27.057Z,83.40
2017-09-16T03:53:54.568Z,84.10
2017-09-16T03:56:22.094Z,85.00
2017-09-16T03:58:50.357Z,86.50
2017-09-16T04:01:30.632Z,87.30
2017-09-16T04:03:58.137Z,87.30
2017-09-16T04:06:25.637Z,87.20
2017-09-16T04:08:53.927Z,86.50
2017-09-16T04:11:21.429Z,86.50
2017-09-16T04:13:48.971Z,86.80
2017-09-16T04:16:16.495Z,87.10
2017-09-16T04:18:43.996Z,87.30
2017-09-16T04:21:11.553Z,87.20
2017-09-16T04:23:39.061Z,87.20
2017-09-16T04:26:07.340Z,86.80
2017-09-16T04:28:34.876Z,86.80
2017-09-16T04:31:03.160Z,86.90
2017-09-16T04:33:31.454Z,86.90
2017-09-16T04:35:58.992Z,86.90
2017-09-16T04:38:27.272Z,87.50
2017-09-16T04:40:55.532Z,87.80
2017-09-16T04:43:23.077Z,87.60
2017-09-16T04:45:50.583Z,88.20
2017-09-16T04:48:18.100Z,88.00
2017-09-16T04:50:46.416Z,88.20
2017-09-16T04:53:13.945Z,88.20
2017-09-16T04:55:42.248Z,88.20
2017-09-16T04:58:09.765Z,88.00
2017-09-16T05:00:37.296Z,88.30
2017-09-16T05:03:04.816Z,88.60
2017-09-16T05:05:32.341Z,88.70
2017-09-16T05:07:59.891Z,88.50
2017-09-16T05:10:27.384Z,88.10
2017-09-16T05:12:54.876Z,87.80
2017-09-16T05:15:22.466Z,87.90
2017-09-16T05:17:49.965Z,88.00
2017-09-16T05:20:17.473Z,87.40
2017-09-16T05:22:44.992Z,87.70
2017-09-16T05:25:12.492Z,88.10
2017-09-16T05:27:40.015Z,87.80
2017-09-16T05:30:07.541Z,88.20
2017-09-16T05:32:35.805Z,88.30
2017-09-16T05:35:04.096Z,88.30
2017-09-16T05:37:31.625Z,88.20
2017-09-16T05:39:59.155Z,88.20
2017-09-16T05:42:26.680Z,88.20
2017-09-16T05:44:54.200Z,88.40
2017-09-16T05:47:21.705Z,89.20
2017-09-16T05:49:49.237Z,88.10
2017-09-16T05:52:17.510Z,88.90
2017-09-16T05:54:45.824Z,88.60
2017-09-16T05:57:13.331Z,88.50
2017-09-16T05:59:41.661Z,88.60
2017-09-16T06:02:09.154Z,88.40
2017-09-16T06:04:36.679Z,88.60
2017-09-16T06:07:04.209Z,88.80
2017-09-16T06:09:31.733Z,88.60
2017-09-16T06:11:59.272Z,88.50
2017-09-16T06:14:26.797Z,88.70
2017-09-16T06:16:54.321Z,88.10
2017-09-16T06:19:22.604Z,88.00
2017-09-16T06:21:50.891Z,87.60
2017-09-16T06:24:18.398Z,87.60
2017-09-16T06:26:45.901Z,87.80
2017-09-16T06:29:13.424Z,87.80
2017-09-16T06:31:40.928Z,88.00
2017-09-16T06:34:08.465Z,88.30
2017-09-16T06:36:35.989Z,88.30
2017-09-16T06:39:03.525Z,87.90
2017-09-16T06:41:31.028Z,87.60
2017-09-16T06:43:59.309Z,87.30
2017-09-16T06:46:27.609Z,87.40
2017-09-16T06:48:55.164Z,87.40
2017-09-16T06:51:22.689Z,87.10
2017-09-16T06:53:50.978Z,87.70
2017-09-16T06:56:19.244Z,87.50
2017-09-16T06:58:47.543Z,87.00
2017-09-16T07:01:15.085Z,87.00
2017-09-16T07:03:43.361Z,86.70
2017-09-16T07:06:10.871Z,86.70
2017-09-16T07:08:38.407Z,86.30
2017-09-16T07:11:05.926Z,85.50
2017-09-16T07:13:34.202Z,85.20
2017-09-16T07:16:02.466Z,85.00
2017-09-16T07:18:29.980Z,85.00
2017-09-16T07:20:57.509Z,85.00
2017-09-16T07:23:25.045Z,84.70
2017-09-16T07:25:53.314Z,84.50
2017-09-16T07:28:20.858Z,84.40
2017-09-16T07:30:49.171Z,83.70
2017-09-16T07:33:16.676Z,83.50
2017-09-16T07:35:44.236Z,83.40
2017-09-16T07:38:11.756Z,82.60
2017-09-16T07:40:39.284Z,82.70
2017-09-16T07:43:07.572Z,82.50
2017-09-16T07:45:35.891Z,81.70
2017-09-16T07:48:03.396Z,81.70
2017-09-16T07:50:31.713Z,81.10
2017-09-16T07:52:59.268Z,81.10
2017-09-16T07:55:26.784Z,80.90
2017-09-16T07:57:55.069Z,81.20
2017-09-16T08:00:23.376Z,80.40
2017-09-16T08:02:51.144Z,80.40
2017-09-16T08:05:18.674Z,80.50
2017-09-16T08:07:46.983Z,80.60
2017-09-16T08:10:14.738Z,80.60
2017-09-16T08:12:42.515Z,80.70
2017-09-16T08:15:10.337Z,80.30
2017-09-16T08:17:37.948Z,80.10
2017-09-16T08:20:06.407Z,79.70
2017-09-16T08:22:33.934Z,79.70
2017-09-16T08:25:02.329Z,79.90
2017-09-16T08:27:29.852Z,79.80
2017-09-16T08:29:57.346Z,80.40
2017-09-16T08:32:24.889Z,79.60
2017-09-16T08:34:53.164Z,79.30
2017-09-16T08:37:21.456Z,77.90
2017-09-16T08:39:48.973Z,77.70
2017-09-16T08:42:16.472Z,77.80
2017-09-16T08:44:43.997Z,78.60
2017-09-16T08:47:12.254Z,78.90
2017-09-16T08:49:39.793Z,78.80
2017-09-16T08:52:07.377Z,79.20
2017-09-16T08:54:34.900Z,78.70
2017-09-16T08:57:02.399Z,77.70
2017-09-16T08:59:30.702Z,76.80
2017-09-16T09:01:58.241Z,76.80
2017-09-16T09:04:26.508Z,77.40
2017-09-16T09:06:54.805Z,77.50
2017-09-16T09:09:22.313Z,77.40
2017-09-16T09:11:49.801Z,77.30
2017-09-16T09:14:18.113Z,76.60
2017-09-16T09:16:45.648Z,76.60
2017-09-16T09:19:13.912Z,76.70
2017-09-16T09:21:42.228Z,76.10
2017-09-16T09:24:09.732Z,76.10
2017-09-16T09:26:37.246Z,75.50
2017-09-16T09:29:04.761Z,75.40
2017-09-16T09:31:33.064Z,74.20
2017-09-16T09:34:00.625Z,74.10
2017-09-16T09:36:28.129Z,73.40
2017-09-16T09:38:55.641Z,72.80
2017-09-16T09:41:23.173Z,71.70
2017-09-16T09:43:51.455Z,71.30
2017-09-16T09:46:18.940Z,71.30
2017-09-16T09:48:46.449Z,71.40
2017-09-16T09:51:13.969Z,70.90
2017-09-16T09:53:41.525Z,70.30
2017-09-16T09:56:09.009Z,71.10
2017-09-16T09:58:37.342Z,70.70
2017-09-16T10:01:04.908Z,70.70
2017-09-16T10:03:32.404Z,70.40
2017-09-16T10:06:01.482Z,69.40
2017-09-16T10:08:28.985Z,69.40
2017-09-16T10:10:57.364Z,68.80
2017-09-16T10:13:25.633Z,68.80
2017-09-16T10:15:53.160Z,68.80
2017-09-16T10:18:20.702Z,68.60
2017-09-16T10:20:48.201Z,68.30
2017-09-16T10:23:16.495Z,69.20
2017-09-16T10:25:43.996Z,69.20
2017-09-16T10:28:11.541Z,67.80
2017-09-16T10:30:39.051Z,67.30
2017-09-16T10:33:06.632Z,67.70
2017-09-16T10:35:34.152Z,68.20
2017-09-16T10:38:01.707Z,67.70
2017-09-16T10:40:30.731Z,67.40
2017-09-16T10:42:58.991Z,67.30
2017-09-16T10:45:27.886Z,67.30
2017-09-16T10:47:56.160Z,67.30
2017-09-16T10:50:24.443Z,66.30
2017-09-16T10:52:52.721Z,65.30
2017-09-16T10:55:21.052Z,63.60
2017-09-16T10:57:48.625Z,63.60
2017-09-16T11:00:16.124Z,63.70
2017-09-16T11:02:43.616Z,62.10
2017-09-16T11:05:11.239Z,61.70
2017-09-16T11:07:38.813Z,60.20
2017-09-16T11:10:06.314Z,59.10
2017-09-16T11:12:33.873Z,58.50
2017-09-16T11:15:01.403Z,56.90
2017-09-16T11:17:28.922Z,56.40
2017-09-16T11:19:56.482Z,56.50
2017-09-16T11:22:23.993Z,57.10
2017-09-16T11:24:51.532Z,57.40
2017-09-16T11:27:19.066Z,56.00
2017-09-16T11:29:46.597Z,55.10
2017-09-16T11:32:14.855Z,55.30
2017-09-16T11:34:42.417Z,55.20
2017-09-16T11:37:09.925Z,55.60
2017-09-16T11:39:37.437Z,55.40
2017-09-16T11:42:05.797Z,55.90
2017-09-16T11:44:34.235Z,55.90
2017-09-16T11:47:01.883Z,55.50
2017-09-16T11:49:29.380Z,54.00
2017-09-16T11:51:56.932Z,54.40
2017-09-16T11:54:24.420Z,53.90
2017-09-16T11:56:51.971Z,53.70
2017-09-16T11:59:19.464Z,53.40
2017-09-16T12:01:46.988Z,52.90
2017-09-16T12:04:14.545Z,52.80
2017-09-16T12:06:42.814Z,50.30
2017-09-16T12:09:10.371Z,50.20
2017-09-16T12:11:37.912Z,48.40
2017-09-16T12:14:05.415Z,49.00
2017-09-16T12:16:33.752Z,48.80
2017-09-16T12:19:01.277Z,48.70
2017-09-16T12:21:28.866Z,49.70
2017-09-16T12:23:56.387Z,49.60
2017-09-16T12:26:23.892Z,50.30
2017-09-16T12:28:52.209Z,52.10
2017-09-16T12:31:20.474Z,52.80
2017-09-16T12:33:48.806Z,53.50
2017-09-16T12:36:16.312Z,53.40
2017-09-16T12:38:44.580Z,53.60
2017-09-16T12:41:12.990Z,54.10
2017-09-16T12:43:40.485Z,54.00
2017-09-16T12:46:08.058Z,54.10
2017-09-16T12:48:35.567Z,54.20
2017-09-16T12:51:03.070Z,53.50
2017-09-16T12:53:30.636Z,53.60
2017-09-16T12:55:58.153Z,54.00
2017-09-16T12:58:25.665Z,53.70
2017-09-16T13:00:53.952Z,53.40
2017-09-16T13:03:22.235Z,53.70
2017-09-16T13:05:49.759Z,53.70
2017-09-16T13:08:18.029Z,54.20
2017-09-16T13:10:46.333Z,54.40
2017-09-16T13:13:14.672Z,54.70
2017-09-16T13:15:42.944Z,54.90
2017-09-16T13:18:10.484Z,54.90
2017-09-16T13:20:39.584Z,55.70
2017-09-16T13:23:07.076Z,55.70
2017-09-16T13:25:34.611Z,57.30
2017-09-16T13:28:02.126Z,59.20
2017-09-16T13:30:29.629Z,60.20
2017-09-16T13:32:57.157Z,62.60
2017-09-16T13:35:24.661Z,63.50
2017-09-16T13:37:52.241Z,63.10
2017-09-16T13:40:20.510Z,65.90
2017-09-16T13:42:48.828Z,69.00
2017-09-16T13:45:16.325Z,69.10
2017-09-16T13:47:44.685Z,71.90
2017-09-16T13:50:12.197Z,71.90
2017-09-16T13:52:39.750Z,73.90
2017-09-16T13:55:07.254Z,74.90
2017-09-16T13:57:34.821Z,76.10
2017-09-16T14:00:02.354Z,75.70
2017-09-16T14:02:29.869Z,75.00
2017-09-16T14:04:58.209Z,73.00
2017-09-16T14:07:25.717Z,72.90
2017-09-16T14:09:53.238Z,72.80
2017-09-16T14:12:22.309Z,71.20
2017-09-16T14:14:49.803Z,71.20
2017-09-16T14:17:18.150Z,70.80
2017-09-16T14:19:45.681Z,70.80
2017-09-16T14:22:13.330Z,71.30
2017-09-16T14:24:40.844Z,71.10
2017-09-16T14:27:09.257Z,72.90
2017-09-16T14:29:36.752Z,72.90
2017-09-16T14:32:04.249Z,72.90
2017-09-16T14:34:31.931Z,73.70
2017-09-16T14:36:59.628Z,71.60
2017-09-16T14:39:27.124Z,74.00
2017-09-16T14:41:55.482Z,76.70
2017-09-16T14:44:23.093Z,76.20
2017-09-16T14:46:50.603Z,77.70
2017-09-16T14:49:18.301Z,79.10
2017-09-16T14:51:45.810Z,78.60
2017-09-16T14:54:13.439Z,78.70
2017-09-16T14:56:40.940Z,78.60
2017-09-16T14:59:08.441Z,79.30
2017-09-16T15:01:35.994Z,80.80
2017-09-16T15:04:03.492Z,81.40
2017-09-16T15:06:30.998Z,80.90
2017-09-16T15:08:59.396Z,80.70
2017-09-16T15:11:26.994Z,80.60
2017-09-16T15:13:54.572Z,81.00
2017-09-16T15:16:22.181Z,81.10
2017-09-16T15:18:49.785Z,81.70
2017-09-16T15:21:17.497Z,80.30
2017-09-16T15:23:45.016Z,80.90
2017-09-16T15:26:12.514Z,81.10
2017-09-16T15:28:40.163Z,81.80
2017-09-16T15:31:07.748Z,82.20
2017-09-16T15:33:35.393Z,81.70
2017-09-16T15:36:02.978Z,81.40
2017-09-16T15:38:30.603Z,81.80
2017-09-16T15:40:58.165Z,82.40
2017-09-16T15:43:25.849Z,80.90
2017-09-16T15:45:53.353Z,79.90
2017-09-16T15:48:20.879Z,80.80
2017-09-16T15:50:48.509Z,82.00
2017-09-16T15:53:16.028Z,82.30
2017-09-16T15:55:44.445Z,84.50
2017-09-16T15:58:11.933Z,83.90
2017-09-16T16:00:39.680Z,83.90
2017-09-16T16:03:07.238Z,84.90
2017-09-16T16:05:34.794Z,84.30
2017-09-16T16:08:02.379Z,84.50
2017-09-16T16:10:29.888Z,84.40
2017-09-16T16:12:57.553Z,84.60
2017-09-16T16:15:25.064Z,84.30
2017-09-16T16:17:52.778Z,84.50
2017-09-16T16:20:20.272Z,83.10
2017-09-16T16:22:47.768Z,82.80
2017-09-16T16:25:16.174Z,83.10
2017-09-16T16:27:43.689Z,83.10
2017-09-16T16:30:12.029Z,84.40
2017-09-16T16:32:39.528Z,84.00
2017-09-16T16:35:07.983Z,84.00
2017-09-16T16:37:35.498Z,84.00
2017-09-16T16:40:03.027Z,84.20
2017-09-16T16:42:31.532Z,85.80
2017-09-16T16:44:59.033Z,85.80
2017-09-16T16:47:26.648Z,86.10
2017-09-16T16:49:54.146Z,86.10
2017-09-16T16:52:21.667Z,86.50
2017-09-16T16:54:49.335Z,86.40
2017-09-16T16:57:16.835Z,86.50
2017-09-16T16:59:45.256Z,86.80
2017-09-16T17:02:12.758Z,86.80
2017-09-16T17:04:40.389Z,86.90
2017-09-16T17:07:07.887Z,87.10
2017-09-16T17:09:35.391Z,87.00
2017-09-16T17:12:03.052Z,86.80
2017-09-16T17:14:30.541Z,86.30
2017-09-16T17:16:58.165Z,87.00
2017-09-16T17:19:25.669Z,86.40
2017-09-16T17:21:53.184Z,84.90
2017-09-16T17:24:20.832Z,83.70
2017-09-16T17:26:49.113Z,82.80
2017-09-16T17:29:16.790Z,82.90
2017-09-16T17:31:44.293Z,83.50
2017-09-16T17:34:13.314Z,84.90
2017-09-16T17:36:41.726Z,85.50
2017-09-16T17:39:09.298Z,85.50
2017-09-16T17:41:37.306Z,85.30
2017-09-16T17:44:05.580Z,84.80
2017-09-16T17:46:33.284Z,84.80
2017-09-16T17:49:00.780Z,85.20
2017-09-16T17:51:28.512Z,85.80
2017-09-16T17:53:56.024Z,85.60
2017-09-16T17:56:24.292Z,85.00
2017-09-16T17:58:52.661Z,85.40
2017-09-16T18:01:20.175Z,85.30
2017-09-16T18:03:47.809Z,86.20
2017-09-16T18:06:15.321Z,86.80
2017-09-16T18:08:43.032Z,87.30
2017-09-16T18:11:10.536Z,87.40
2017-09-16T18:13:38.141Z,87.30
2017-09-16T18:16:06.532Z,87.00
2017-09-16T18:18:34.189Z,87.00
2017-09-16T18:21:01.840Z,86.90
2017-09-16T18:23:30.104Z,86.20
2017-09-16T18:25:58.512Z,86.40
2017-09-16T18:28:26.022Z,86.30
2017-09-16T18:30:53.725Z,86.90
2017-09-16T18:33:21.248Z,87.10
2017-09-16T18:35:50.360Z,87.30
2017-09-16T18:38:18.701Z,87.30
2017-09-16T18:40:46.216Z,87.30
2017-09-16T18:43:14.004Z,87.30
2017-09-16T18:45:41.638Z,86.80
2017-09-16T18:48:09.161Z,86.90
2017-09-16T18:50:36.857Z,87.00
2017-09-16T18:53:04.528Z,87.10
2017-09-16T18:55:32.048Z,87.30
2017-09-16T18:58:00.432Z,86.50
2017-09-16T19:00:28.697Z,86.70
2017-09-16T19:02:57.213Z,86.30
2017-09-16T19:05:24.732Z,86.20
2017-09-16T19:07:52.438Z,86.20
2017-09-16T19:10:20.105Z,86.20
2017-09-16T19:12:47.760Z,85.80
2017-09-16T19:15:15.522Z,86.00
2017-09-16T19:17:43.069Z,86.10
2017-09-16T19:20:10.746Z,86.10
2017-09-16T19:22:38.260Z,86.50
2017-09-16T19:25:06.784Z,87.30
2017-09-16T19:27:34.453Z,87.10
2017-09-16T19:30:01.978Z,87.20
2017-09-16T19:32:29.670Z,87.50
2017-09-16T19:34:57.198Z,87.60
2017-09-16T19:37:24.897Z,87.50
2017-09-16T19:39:52.404Z,87.40
2017-09-16T19:42:20.928Z,87.10
2017-09-16T19:44:48.588Z,87.10
2017-09-16T19:47:16.127Z,87.00
2017-09-16T19:49:43.804Z,87.00
2017-09-16T19:52:11.342Z,86.80
2017-09-16T19:54:38.939Z,87.00
2017-09-16T19:57:06.570Z,87.20
2017-09-16T19:59:34.217Z,86.90
2017-09-16T20:02:01.717Z,86.60
2017-09-16T20:04:29.205Z,86.60
2017-09-16T20:06:57.604Z,86.40
2017-09-16T20:09:25.876Z,86.30
2017-09-16T20:11:54.378Z,86.20
2017-09-16T20:14:21.889Z,86.10
2017-09-16T20:16:50.169Z,86.50
2017-09-16T20:19:17.910Z,86.50
2017-09-16T20:21:45.528Z,86.30
2017-09-16T20:24:13.059Z,86.30
2017-09-16T20:26:40.768Z,86.60
2017-09-16T20:29:08.413Z,86.90
2017-09-16T20:31:35.930Z,86.70
2017-09-16T20:34:04.061Z,86.80
2017-09-16T20:36:31.584Z,88.40
2017-09-16T20:38:59.258Z,87.60
2017-09-16T20:41:26.957Z,88.30
2017-09-16T20:43:56.273Z,87.30
2017-09-16T20:46:23.873Z,87.00
2017-09-16T20:48:51.408Z,86.70
2017-09-16T20:51:19.930Z,87.60
2017-09-16T20:53:47.429Z,87.50
2017-09-16T20:56:14.928Z,87.90
2017-09-16T20:58:42.602Z,88.40
2017-09-16T21:01:10.117Z,88.80
2017-09-16T21:03:37.796Z,89.40
2017-09-16T21:06:05.303Z,89.30
2017-09-16T21:08:32.816Z,89.20
2017-09-16T21:11:00.492Z,89.50
2017-09-16T21:13:27.986Z,88.30
2017-09-16T21:15:55.637Z,87.70
2017-09-16T21:18:23.150Z,87.60
2017-09-16T21:20:50.823Z,87.80
2017-09-16T21:23:18.371Z,87.60
2017-09-16T21:25:45.953Z,87.30
2017-09-16T21:28:13.462Z,86.90
2017-09-16T21:30:41.886Z,87.10
2017-09-16T21:33:09.400Z,87.00
2017-09-16T21:35:37.931Z,88.10
2017-09-16T21:38:05.526Z,87.20
2017-09-16T21:40:33.028Z,87.10
2017-09-16T21:43:00.566Z,87.40
2017-09-16T21:45:28.929Z,88.30
2017-09-16T21:47:57.197Z,88.30
2017-09-16T21:50:24.829Z,88.10
2017-09-16T21:52:52.367Z,88.10
2017-09-16T21:55:19.870Z,87.70
2017-09-16T21:57:47.496Z,87.70
2017-09-16T22:00:15.014Z,88.10
2017-09-16T22:02:43.329Z,88.00
2017-09-16T22:05:10.821Z,87.90
2017-09-16T22:07:38.436Z,87.70
2017-09-16T22:10:05.945Z,87.20
2017-09-16T22:12:33.454Z,86.90
2017-09-16T22:15:01.048Z,86.80
2017-09-16T22:17:28.560Z,87.00
2017-09-16T22:19:56.145Z,87.30
2017-09-16T22:22:23.653Z,87.50
2017-09-16T22:24:51.993Z,88.20
2017-09-16T22:27:19.488Z,88.20
2017-09-16T22:29:47.750Z,89.70
2017-09-16T22:32:15.277Z,89.00
2017-09-16T22:34:42.772Z,89.20
2017-09-16T22:37:11.095Z,89.80
2017-09-16T22:39:38.605Z,89.80
2017-09-16T22:42:06.871Z,89.40
2017-09-16T22:44:34.409Z,89.40
2017-09-16T22:47:02.035Z,88.90
2017-09-16T22:49:29.575Z,88.70
2017-09-16T22:51:57.073Z,88.70
2017-09-16T22:54:24.616Z,88.40
2017-09-16T22:56:52.132Z,88.50
2017-09-16T22:59:20.413Z,88.30
2017-09-16T23:01:48.719Z,88.50
2017-09-16T23:04:16.212Z,88.50
2017-09-16T23:06:43.721Z,88.30
2017-09-16T23:09:11.245Z,88.40
2017-09-16T23:11:38.772Z,88.60
2017-09-16T23:14:06.285Z,88.80
2017-09-16T23:16:33.811Z,88.50
2017-09-16T23:19:01.410Z,89.10
2017-09-16T23:21:28.933Z,88.50
2017-09-16T23:23:57.253Z,89.50
2017-09-16T23:26:24.777Z,89.20
2017-09-16T23:28:53.045Z,89.40
2017-09-16T23:31:21.341Z,89.90
2017-09-16T23:33:48.838Z,89.50
2017-09-16T23:36:16.382Z,89.80
2017-09-16T23:38:43.873Z,89.70
2017-09-16T23:41:11.392Z,89.50
2017-09-16T23:43:38.897Z,89.10
2017-09-16T23:46:06.438Z,88.60
2017-09-16T23:48:33.933Z,88.10
2017-09-16T23:51:02.192Z,87.40
2017-09-16T23:53:29.730Z,87.40
2017-09-16T23:55:57.223Z,86.70
2017-09-16T23:58:25.517Z,86.80
